sensor_id;sensor_type;location;lat;lon;timestamp;P1;durP1;ratioP1;P2;durP2;ratioP2
24153;SDS011;12312;53.362;-1.518;2022-08-11T00:01:24;6.55;;;1.67;;
24153;SDS011;12312;53.362;-1.518;2022-08-11T00:03:59;4.22;;;1.60;;
24153;SDS011;12312;53.362;-1.518;2022-08-11T00:09:04;4.88;;;1.55;;
24153;SDS011;12312;53.362;-1.518;2022-08-11T00:11:35;5.70;;;1.70;;
24153;SDS011;12312;53.362;-1.518;2022-08-11T00:14:04;4.25;;;1.58;;
24153;SDS011;12312;53.362;-1.518;2022-08-11T00:16:38;3.72;;;1.70;;
24153;SDS011;12312;53.362;-1.518;2022-08-11T00:19:06;2.55;;;1.40;;
24153;SDS011;12312;53.362;-1.518;2022-08-11T00:21:37;3.25;;;1.60;;
24153;SDS011;12312;53.362;-1.518;2022-08-11T00:24:06;3.90;;;1.80;;
24153;SDS011;12312;53.362;-1.518;2022-08-11T00:26:33;3.33;;;1.58;;
24153;SDS011;12312;53.362;-1.518;2022-08-11T00:29:06;2.85;;;1.40;;
24153;SDS011;12312;53.362;-1.518;2022-08-11T00:31:33;3.78;;;1.70;;
24153;SDS011;12312;53.362;-1.518;2022-08-11T00:34:01;4.82;;;1.65;;
24153;SDS011;12312;53.362;-1.518;2022-08-11T00:36:37;3.53;;;1.25;;
24153;SDS011;12312;53.362;-1.518;2022-08-11T00:39:07;3.33;;;1.60;;
24153;SDS011;12312;53.362;-1.518;2022-08-11T01:37:22;2.50;;;1.48;;
24153;SDS011;12312;53.362;-1.518;2022-08-11T01:40:26;8.30;;;1.70;;
24153;SDS011;12312;53.362;-1.518;2022-08-11T01:43:03;3.20;;;1.60;;
24153;SDS011;12312;53.362;-1.518;2022-08-11T02:00:13;5.78;;;1.50;;
24153;SDS011;12312;53.362;-1.518;2022-08-11T02:16:46;4.10;;;1.58;;
24153;SDS011;12312;53.362;-1.518;2022-08-11T02:22:41;6.15;;;1.70;;
24153;SDS011;12312;53.362;-1.518;2022-08-11T02:25:36;4.32;;;1.52;;
24153;SDS011;12312;53.362;-1.518;2022-08-11T02:28:16;3.53;;;1.60;;
24153;SDS011;12312;53.362;-1.518;2022-08-11T02:31:08;5.93;;;1.90;;
24153;SDS011;12312;53.362;-1.518;2022-08-11T02:34:44;5.20;;;1.85;;
24153;SDS011;12312;53.362;-1.518;2022-08-11T02:53:56;2.10;;;1.60;;
24153;SDS011;12312;53.362;-1.518;2022-08-11T02:59:02;4.15;;;1.95;;
24153;SDS011;12312;53.362;-1.518;2022-08-11T03:01:55;3.63;;;1.70;;
24153;SDS011;12312;53.362;-1.518;2022-08-11T03:04:34;3.63;;;1.67;;
24153;SDS011;12312;53.362;-1.518;2022-08-11T03:10:12;3.95;;;1.85;;
24153;SDS011;12312;53.362;-1.518;2022-08-11T03:18:57;5.70;;;2.35;;
24153;SDS011;12312;53.362;-1.518;2022-08-11T03:21:28;4.63;;;2.42;;
24153;SDS011;12312;53.362;-1.518;2022-08-11T03:24:05;3.85;;;2.25;;
24153;SDS011;12312;53.362;-1.518;2022-08-11T03:29:43;4.65;;;2.50;;
24153;SDS011;12312;53.362;-1.518;2022-08-11T03:35:05;4.20;;;2.55;;
24153;SDS011;12312;53.362;-1.518;2022-08-11T03:37:47;3.67;;;1.90;;
24153;SDS011;12312;53.362;-1.518;2022-08-11T03:44:02;5.82;;;2.30;;
24153;SDS011;12312;53.362;-1.518;2022-08-11T03:47:07;6.88;;;2.30;;
24153;SDS011;12312;53.362;-1.518;2022-08-11T04:18:17;4.32;;;2.47;;
24153;SDS011;12312;53.362;-1.518;2022-08-11T04:20:52;9.25;;;3.15;;
24153;SDS011;12312;53.362;-1.518;2022-08-11T04:37:31;6.75;;;2.70;;
24153;SDS011;12312;53.362;-1.518;2022-08-11T04:54:02;6.63;;;3.03;;
24153;SDS011;12312;53.362;-1.518;2022-08-11T04:56:47;4.85;;;2.83;;
24153;SDS011;12312;53.362;-1.518;2022-08-11T05:00:16;3.83;;;3.00;;
24153;SDS011;12312;53.362;-1.518;2022-08-11T05:14:53;4.53;;;2.60;;
24153;SDS011;12312;53.362;-1.518;2022-08-11T05:17:51;4.00;;;2.60;;
24153;SDS011;12312;53.362;-1.518;2022-08-11T05:20:46;4.18;;;2.67;;
24153;SDS011;12312;53.362;-1.518;2022-08-11T05:23:48;6.65;;;2.47;;
24153;SDS011;12312;53.362;-1.518;2022-08-11T05:26:43;5.80;;;2.63;;
24153;SDS011;12312;53.362;-1.518;2022-08-11T05:29:47;7.65;;;2.72;;
24153;SDS011;12312;53.362;-1.518;2022-08-11T05:32:41;10.10;;;2.65;;
24153;SDS011;12312;53.362;-1.518;2022-08-11T05:35:34;5.75;;;2.30;;
24153;SDS011;12312;53.362;-1.518;2022-08-11T05:38:22;6.40;;;3.08;;
24153;SDS011;12312;53.362;-1.518;2022-08-11T05:41:10;5.78;;;2.50;;
24153;SDS011;12312;53.362;-1.518;2022-08-11T05:43:59;6.80;;;3.08;;
24153;SDS011;12312;53.362;-1.518;2022-08-11T05:46:44;7.68;;;3.22;;
24153;SDS011;12312;53.362;-1.518;2022-08-11T05:49:30;6.88;;;2.92;;
24153;SDS011;12312;53.362;-1.518;2022-08-11T05:52:15;6.63;;;3.03;;
24153;SDS011;12312;53.362;-1.518;2022-08-11T05:55:04;7.53;;;3.15;;
24153;SDS011;12312;53.362;-1.518;2022-08-11T05:57:54;4.95;;;3.00;;
24153;SDS011;12312;53.362;-1.518;2022-08-11T06:00:21;5.53;;;2.90;;
24153;SDS011;12312;53.362;-1.518;2022-08-11T06:02:58;7.78;;;3.70;;
24153;SDS011;12312;53.362;-1.518;2022-08-11T06:05:37;5.80;;;3.13;;
24153;SDS011;12312;53.362;-1.518;2022-08-11T06:08:08;6.90;;;3.05;;
24153;SDS011;12312;53.362;-1.518;2022-08-11T06:10:42;6.70;;;3.13;;
24153;SDS011;12312;53.362;-1.518;2022-08-11T06:13:09;5.18;;;3.33;;
24153;SDS011;12312;53.362;-1.518;2022-08-11T06:15:43;4.47;;;2.92;;
24153;SDS011;12312;53.362;-1.518;2022-08-11T06:18:12;8.73;;;3.38;;
24153;SDS011;12312;53.362;-1.518;2022-08-11T06:20:52;6.85;;;3.25;;
24153;SDS011;12312;53.362;-1.518;2022-08-11T06:23:20;5.53;;;3.08;;
24153;SDS011;12312;53.362;-1.518;2022-08-11T06:25:48;6.20;;;3.28;;
24153;SDS011;12312;53.362;-1.518;2022-08-11T06:28:15;8.07;;;3.70;;
24153;SDS011;12312;53.362;-1.518;2022-08-11T06:30:45;7.30;;;3.30;;
24153;SDS011;12312;53.362;-1.518;2022-08-11T06:36:02;8.13;;;3.45;;
24153;SDS011;12312;53.362;-1.518;2022-08-11T06:38:37;7.88;;;3.60;;
24153;SDS011;12312;53.362;-1.518;2022-08-11T06:46:38;5.53;;;3.05;;
24153;SDS011;12312;53.362;-1.518;2022-08-11T06:49:07;11.80;;;4.15;;
24153;SDS011;12312;53.362;-1.518;2022-08-11T06:51:59;6.78;;;3.92;;
24153;SDS011;12312;53.362;-1.518;2022-08-11T06:54:31;6.82;;;3.83;;
24153;SDS011;12312;53.362;-1.518;2022-08-11T06:57:05;5.97;;;3.75;;
24153;SDS011;12312;53.362;-1.518;2022-08-11T06:59:53;8.02;;;3.65;;
24153;SDS011;12312;53.362;-1.518;2022-08-11T07:05:11;6.78;;;3.85;;
24153;SDS011;12312;53.362;-1.518;2022-08-11T07:13:44;10.45;;;3.38;;
24153;SDS011;12312;53.362;-1.518;2022-08-11T07:16:30;7.68;;;3.63;;
24153;SDS011;12312;53.362;-1.518;2022-08-11T07:19:01;6.45;;;3.58;;
24153;SDS011;12312;53.362;-1.518;2022-08-11T07:21:48;6.05;;;3.08;;
24153;SDS011;12312;53.362;-1.518;2022-08-11T07:24:36;6.93;;;3.47;;
24153;SDS011;12312;53.362;-1.518;2022-08-11T07:27:24;10.20;;;3.05;;
24153;SDS011;12312;53.362;-1.518;2022-08-11T07:30:15;6.93;;;2.97;;
24153;SDS011;12312;53.362;-1.518;2022-08-11T07:32:48;8.43;;;2.83;;
24153;SDS011;12312;53.362;-1.518;2022-08-11T07:35:19;6.60;;;2.65;;
24153;SDS011;12312;53.362;-1.518;2022-08-11T07:37:56;7.22;;;2.80;;
24153;SDS011;12312;53.362;-1.518;2022-08-11T07:40:25;4.10;;;2.83;;
24153;SDS011;12312;53.362;-1.518;2022-08-11T07:42:52;4.25;;;2.67;;
24153;SDS011;12312;53.362;-1.518;2022-08-11T07:45:19;5.78;;;2.60;;
24153;SDS011;12312;53.362;-1.518;2022-08-11T07:48:08;7.20;;;2.90;;
24153;SDS011;12312;53.362;-1.518;2022-08-11T07:50:53;7.78;;;3.10;;
24153;SDS011;12312;53.362;-1.518;2022-08-11T07:53:38;6.18;;;2.97;;
24153;SDS011;12312;53.362;-1.518;2022-08-11T07:56:04;5.47;;;2.88;;
24153;SDS011;12312;53.362;-1.518;2022-08-11T07:58:32;5.50;;;2.90;;
24153;SDS011;12312;53.362;-1.518;2022-08-11T08:01:21;7.65;;;2.95;;
24153;SDS011;12312;53.362;-1.518;2022-08-11T08:04:09;6.15;;;2.72;;
24153;SDS011;12312;53.362;-1.518;2022-08-11T08:06:56;5.38;;;2.53;;
24153;SDS011;12312;53.362;-1.518;2022-08-11T08:09:42;4.18;;;2.70;;
24153;SDS011;12312;53.362;-1.518;2022-08-11T08:12:28;11.23;;;2.97;;
24153;SDS011;12312;53.362;-1.518;2022-08-11T08:15:13;9.07;;;2.80;;
24153;SDS011;12312;53.362;-1.518;2022-08-11T08:17:59;5.60;;;2.58;;
24153;SDS011;12312;53.362;-1.518;2022-08-11T08:20:28;10.55;;;4.60;;
24153;SDS011;12312;53.362;-1.518;2022-08-11T08:22:59;7.63;;;2.83;;
24153;SDS011;12312;53.362;-1.518;2022-08-11T08:25:30;6.38;;;2.67;;
24153;SDS011;12312;53.362;-1.518;2022-08-11T08:27:58;5.50;;;2.70;;
24153;SDS011;12312;53.362;-1.518;2022-08-11T08:30:26;5.28;;;2.45;;
24153;SDS011;12312;53.362;-1.518;2022-08-11T08:35:48;4.85;;;2.25;;
24153;SDS011;12312;53.362;-1.518;2022-08-11T08:38:16;4.55;;;1.95;;
24153;SDS011;12312;53.362;-1.518;2022-08-11T08:40:44;6.95;;;2.53;;
24153;SDS011;12312;53.362;-1.518;2022-08-11T08:43:14;6.70;;;2.63;;
24153;SDS011;12312;53.362;-1.518;2022-08-11T08:45:42;8.02;;;2.42;;
24153;SDS011;12312;53.362;-1.518;2022-08-11T08:48:12;6.32;;;2.45;;
24153;SDS011;12312;53.362;-1.518;2022-08-11T08:50:46;6.95;;;2.72;;
24153;SDS011;12312;53.362;-1.518;2022-08-11T08:53:35;8.20;;;2.55;;
24153;SDS011;12312;53.362;-1.518;2022-08-11T08:56:06;5.68;;;2.05;;
24153;SDS011;12312;53.362;-1.518;2022-08-11T08:58:34;8.93;;;2.67;;
24153;SDS011;12312;53.362;-1.518;2022-08-11T09:01:03;8.05;;;2.28;;
24153;SDS011;12312;53.362;-1.518;2022-08-11T09:03:35;6.93;;;2.55;;
24153;SDS011;12312;53.362;-1.518;2022-08-11T09:06:03;8.23;;;3.03;;
24153;SDS011;12312;53.362;-1.518;2022-08-11T09:08:33;6.43;;;2.28;;
24153;SDS011;12312;53.362;-1.518;2022-08-11T09:11:00;8.70;;;2.65;;
24153;SDS011;12312;53.362;-1.518;2022-08-11T09:13:46;2.85;;;1.88;;
24153;SDS011;12312;53.362;-1.518;2022-08-11T09:16:12;5.10;;;2.33;;
24153;SDS011;12312;53.362;-1.518;2022-08-11T09:18:40;6.50;;;2.45;;
24153;SDS011;12312;53.362;-1.518;2022-08-11T09:21:10;9.25;;;2.50;;
24153;SDS011;12312;53.362;-1.518;2022-08-11T09:23:51;5.55;;;2.20;;
24153;SDS011;12312;53.362;-1.518;2022-08-11T09:26:36;8.48;;;1.95;;
24153;SDS011;12312;53.362;-1.518;2022-08-11T09:29:22;4.82;;;1.88;;
24153;SDS011;12312;53.362;-1.518;2022-08-11T09:31:48;5.72;;;1.80;;
24153;SDS011;12312;53.362;-1.518;2022-08-11T09:34:16;5.97;;;1.50;;
24153;SDS011;12312;53.362;-1.518;2022-08-11T09:36:42;6.90;;;2.13;;
24153;SDS011;12312;53.362;-1.518;2022-08-11T09:39:30;2.72;;;1.50;;
24153;SDS011;12312;53.362;-1.518;2022-08-11T09:42:19;4.57;;;1.67;;
24153;SDS011;12312;53.362;-1.518;2022-08-11T09:45:09;4.53;;;1.60;;
24153;SDS011;12312;53.362;-1.518;2022-08-11T09:47:37;4.78;;;1.60;;
24153;SDS011;12312;53.362;-1.518;2022-08-11T09:50:05;6.18;;;1.80;;
24153;SDS011;12312;53.362;-1.518;2022-08-11T09:52:39;6.05;;;1.95;;
24153;SDS011;12312;53.362;-1.518;2022-08-11T09:55:05;6.47;;;1.83;;
24153;SDS011;12312;53.362;-1.518;2022-08-11T09:57:37;5.05;;;1.73;;
24153;SDS011;12312;53.362;-1.518;2022-08-11T10:00:27;6.68;;;1.88;;
24153;SDS011;12312;53.362;-1.518;2022-08-11T10:02:54;5.05;;;2.10;;
24153;SDS011;12312;53.362;-1.518;2022-08-11T10:05:21;6.30;;;2.20;;
24153;SDS011;12312;53.362;-1.518;2022-08-11T10:08:08;6.32;;;2.05;;
24153;SDS011;12312;53.362;-1.518;2022-08-11T10:10:38;4.95;;;2.25;;
24153;SDS011;12312;53.362;-1.518;2022-08-11T10:13:05;7.03;;;2.00;;
24153;SDS011;12312;53.362;-1.518;2022-08-11T10:15:35;5.10;;;2.13;;
24153;SDS011;12312;53.362;-1.518;2022-08-11T10:18:14;10.70;;;2.10;;
24153;SDS011;12312;53.362;-1.518;2022-08-11T10:21:11;4.70;;;2.60;;
24153;SDS011;12312;53.362;-1.518;2022-08-11T10:23:39;3.83;;;2.15;;
24153;SDS011;12312;53.362;-1.518;2022-08-11T10:26:26;5.40;;;2.30;;
24153;SDS011;12312;53.362;-1.518;2022-08-11T10:29:12;6.03;;;2.17;;
24153;SDS011;12312;53.362;-1.518;2022-08-11T10:31:58;6.60;;;2.20;;
24153;SDS011;12312;53.362;-1.518;2022-08-11T10:34:44;7.38;;;2.35;;
24153;SDS011;12312;53.362;-1.518;2022-08-11T10:37:14;9.75;;;2.33;;
24153;SDS011;12312;53.362;-1.518;2022-08-11T10:39:41;4.93;;;2.40;;
24153;SDS011;12312;53.362;-1.518;2022-08-11T10:42:08;6.40;;;2.47;;
24153;SDS011;12312;53.362;-1.518;2022-08-11T10:44:54;6.32;;;2.67;;
24153;SDS011;12312;53.362;-1.518;2022-08-11T10:47:21;6.72;;;3.00;;
24153;SDS011;12312;53.362;-1.518;2022-08-11T10:50:07;8.13;;;2.35;;
24153;SDS011;12312;53.362;-1.518;2022-08-11T10:52:57;7.47;;;2.35;;
24153;SDS011;12312;53.362;-1.518;2022-08-11T10:55:45;3.88;;;2.35;;
24153;SDS011;12312;53.362;-1.518;2022-08-11T10:58:35;7.75;;;2.40;;
24153;SDS011;12312;53.362;-1.518;2022-08-11T11:01:20;4.40;;;2.25;;
24153;SDS011;12312;53.362;-1.518;2022-08-11T11:04:03;6.30;;;2.00;;
24153;SDS011;12312;53.362;-1.518;2022-08-11T11:09:55;5.05;;;2.53;;
24153;SDS011;12312;53.362;-1.518;2022-08-11T11:12:24;4.65;;;2.13;;
24153;SDS011;12312;53.362;-1.518;2022-08-11T11:15:17;4.63;;;2.05;;
24153;SDS011;12312;53.362;-1.518;2022-08-11T11:18:20;7.70;;;2.15;;
24153;SDS011;12312;53.362;-1.518;2022-08-11T11:23:37;6.60;;;1.88;;
24153;SDS011;12312;53.362;-1.518;2022-08-11T11:37:33;6.40;;;1.90;;
24153;SDS011;12312;53.362;-1.518;2022-08-11T11:40:10;5.75;;;2.00;;
24153;SDS011;12312;53.362;-1.518;2022-08-11T11:42:40;4.00;;;2.20;;
24153;SDS011;12312;53.362;-1.518;2022-08-11T11:45:08;4.53;;;2.33;;
24153;SDS011;12312;53.362;-1.518;2022-08-11T11:47:36;6.50;;;1.65;;
24153;SDS011;12312;53.362;-1.518;2022-08-11T11:50:06;5.15;;;1.95;;
24153;SDS011;12312;53.362;-1.518;2022-08-11T11:52:33;4.90;;;1.70;;
24153;SDS011;12312;53.362;-1.518;2022-08-11T11:55:00;3.17;;;1.73;;
24153;SDS011;12312;53.362;-1.518;2022-08-11T11:57:28;5.22;;;2.00;;
24153;SDS011;12312;53.362;-1.518;2022-08-11T12:00:13;5.57;;;2.20;;
24153;SDS011;12312;53.362;-1.518;2022-08-11T12:03:00;4.70;;;1.80;;
24153;SDS011;12312;53.362;-1.518;2022-08-11T12:05:34;5.63;;;2.10;;
24153;SDS011;12312;53.362;-1.518;2022-08-11T12:08:01;6.15;;;1.60;;
24153;SDS011;12312;53.362;-1.518;2022-08-11T12:10:51;6.70;;;1.80;;
24153;SDS011;12312;53.362;-1.518;2022-08-11T12:13:41;5.90;;;1.67;;
24153;SDS011;12312;53.362;-1.518;2022-08-11T12:16:10;4.63;;;1.90;;
24153;SDS011;12312;53.362;-1.518;2022-08-11T12:18:59;7.03;;;2.08;;
24153;SDS011;12312;53.362;-1.518;2022-08-11T12:21:26;4.20;;;1.98;;
24153;SDS011;12312;53.362;-1.518;2022-08-11T12:23:53;4.28;;;2.20;;
24153;SDS011;12312;53.362;-1.518;2022-08-11T12:26:41;6.97;;;2.80;;
24153;SDS011;12312;53.362;-1.518;2022-08-11T12:29:14;7.40;;;2.33;;
24153;SDS011;12312;53.362;-1.518;2022-08-11T12:31:43;3.58;;;1.92;;
24153;SDS011;12312;53.362;-1.518;2022-08-11T12:34:11;4.72;;;2.30;;
24153;SDS011;12312;53.362;-1.518;2022-08-11T12:36:39;4.05;;;2.08;;
24153;SDS011;12312;53.362;-1.518;2022-08-11T12:39:11;7.63;;;2.30;;
24153;SDS011;12312;53.362;-1.518;2022-08-11T12:41:37;6.38;;;1.85;;
24153;SDS011;12312;53.362;-1.518;2022-08-11T12:44:25;6.88;;;1.90;;
24153;SDS011;12312;53.362;-1.518;2022-08-11T12:47:12;6.50;;;2.00;;
24153;SDS011;12312;53.362;-1.518;2022-08-11T12:49:43;5.03;;;1.95;;
24153;SDS011;12312;53.362;-1.518;2022-08-11T12:52:31;6.25;;;2.10;;
24153;SDS011;12312;53.362;-1.518;2022-08-11T12:55:10;9.48;;;2.20;;
24153;SDS011;12312;53.362;-1.518;2022-08-11T12:57:59;7.97;;;2.50;;
24153;SDS011;12312;53.362;-1.518;2022-08-11T13:00:41;5.90;;;2.28;;
24153;SDS011;12312;53.362;-1.518;2022-08-11T13:03:27;6.18;;;2.13;;
24153;SDS011;12312;53.362;-1.518;2022-08-11T13:06:12;4.97;;;1.90;;
24153;SDS011;12312;53.362;-1.518;2022-08-11T13:08:39;4.10;;;1.88;;
24153;SDS011;12312;53.362;-1.518;2022-08-11T13:11:07;5.85;;;2.13;;
24153;SDS011;12312;53.362;-1.518;2022-08-11T13:13:52;8.18;;;1.50;;
24153;SDS011;12312;53.362;-1.518;2022-08-11T13:16:30;6.43;;;1.70;;
24153;SDS011;12312;53.362;-1.518;2022-08-11T13:19:17;7.75;;;2.20;;
24153;SDS011;12312;53.362;-1.518;2022-08-11T13:21:45;5.82;;;1.50;;
24153;SDS011;12312;53.362;-1.518;2022-08-11T13:24:13;4.18;;;1.50;;
24153;SDS011;12312;53.362;-1.518;2022-08-11T13:26:40;6.15;;;1.77;;
24153;SDS011;12312;53.362;-1.518;2022-08-11T13:29:08;5.70;;;1.73;;
24153;SDS011;12312;53.362;-1.518;2022-08-11T13:31:34;4.95;;;1.67;;
24153;SDS011;12312;53.362;-1.518;2022-08-11T13:34:01;3.80;;;2.00;;
24153;SDS011;12312;53.362;-1.518;2022-08-11T13:36:28;4.88;;;2.00;;
24153;SDS011;12312;53.362;-1.518;2022-08-11T13:38:54;8.43;;;2.10;;
24153;SDS011;12312;53.362;-1.518;2022-08-11T13:41:23;3.88;;;1.80;;
24153;SDS011;12312;53.362;-1.518;2022-08-11T13:44:07;3.95;;;1.73;;
24153;SDS011;12312;53.362;-1.518;2022-08-11T13:46:34;5.95;;;2.28;;
24153;SDS011;12312;53.362;-1.518;2022-08-11T13:49:01;4.18;;;2.03;;
24153;SDS011;12312;53.362;-1.518;2022-08-11T13:51:28;8.20;;;2.08;;
24153;SDS011;12312;53.362;-1.518;2022-08-11T13:53:56;5.03;;;2.13;;
24153;SDS011;12312;53.362;-1.518;2022-08-11T13:56:23;4.93;;;1.90;;
24153;SDS011;12312;53.362;-1.518;2022-08-11T13:58:50;7.53;;;2.30;;
24153;SDS011;12312;53.362;-1.518;2022-08-11T14:01:22;5.55;;;2.58;;
24153;SDS011;12312;53.362;-1.518;2022-08-11T14:03:50;8.15;;;2.80;;
24153;SDS011;12312;53.362;-1.518;2022-08-11T14:06:17;5.38;;;2.72;;
24153;SDS011;12312;53.362;-1.518;2022-08-11T14:08:44;4.78;;;2.40;;
24153;SDS011;12312;53.362;-1.518;2022-08-11T14:11:10;5.40;;;2.40;;
24153;SDS011;12312;53.362;-1.518;2022-08-11T14:13:59;5.97;;;2.33;;
24153;SDS011;12312;53.362;-1.518;2022-08-11T14:16:30;4.97;;;2.40;;
24153;SDS011;12312;53.362;-1.518;2022-08-11T14:19:01;6.28;;;2.97;;
24153;SDS011;12312;53.362;-1.518;2022-08-11T14:21:32;5.55;;;2.60;;
24153;SDS011;12312;53.362;-1.518;2022-08-11T14:24:19;7.20;;;3.78;;
24153;SDS011;12312;53.362;-1.518;2022-08-11T14:26:45;9.68;;;3.65;;
24153;SDS011;12312;53.362;-1.518;2022-08-11T14:29:13;6.68;;;3.47;;
24153;SDS011;12312;53.362;-1.518;2022-08-11T14:31:46;9.38;;;3.60;;
24153;SDS011;12312;53.362;-1.518;2022-08-11T14:34:12;6.72;;;3.83;;
24153;SDS011;12312;53.362;-1.518;2022-08-11T14:36:40;8.60;;;3.72;;
24153;SDS011;12312;53.362;-1.518;2022-08-11T14:39:17;9.43;;;3.53;;
24153;SDS011;12312;53.362;-1.518;2022-08-11T14:41:49;7.28;;;3.47;;
24153;SDS011;12312;53.362;-1.518;2022-08-11T14:44:39;9.32;;;3.10;;
24153;SDS011;12312;53.362;-1.518;2022-08-11T14:47:46;7.60;;;3.58;;
24153;SDS011;12312;53.362;-1.518;2022-08-11T14:50:18;6.15;;;3.63;;
24153;SDS011;12312;53.362;-1.518;2022-08-11T14:52:50;9.27;;;3.85;;
24153;SDS011;12312;53.362;-1.518;2022-08-11T14:55:19;6.80;;;3.00;;
24153;SDS011;12312;53.362;-1.518;2022-08-11T14:58:10;10.45;;;3.47;;
24153;SDS011;12312;53.362;-1.518;2022-08-11T15:00:38;6.75;;;3.30;;
24153;SDS011;12312;53.362;-1.518;2022-08-11T15:03:05;6.90;;;2.97;;
24153;SDS011;12312;53.362;-1.518;2022-08-11T15:05:35;6.15;;;3.40;;
24153;SDS011;12312;53.362;-1.518;2022-08-11T15:08:03;6.82;;;3.13;;
24153;SDS011;12312;53.362;-1.518;2022-08-11T15:10:32;7.13;;;2.70;;
24153;SDS011;12312;53.362;-1.518;2022-08-11T15:12:58;7.80;;;2.67;;
24153;SDS011;12312;53.362;-1.518;2022-08-11T15:15:25;7.28;;;3.28;;
24153;SDS011;12312;53.362;-1.518;2022-08-11T15:18:11;6.03;;;2.50;;
24153;SDS011;12312;53.362;-1.518;2022-08-11T15:20:41;6.30;;;3.10;;
24153;SDS011;12312;53.362;-1.518;2022-08-11T15:23:27;4.85;;;2.30;;
24153;SDS011;12312;53.362;-1.518;2022-08-11T15:26:13;4.32;;;2.22;;
24153;SDS011;12312;53.362;-1.518;2022-08-11T15:28:46;6.22;;;2.05;;
24153;SDS011;12312;53.362;-1.518;2022-08-11T15:31:32;4.38;;;2.25;;
24153;SDS011;12312;53.362;-1.518;2022-08-11T15:34:10;5.95;;;2.35;;
24153;SDS011;12312;53.362;-1.518;2022-08-11T15:36:58;5.50;;;2.25;;
24153;SDS011;12312;53.362;-1.518;2022-08-11T15:39:48;2.92;;;2.00;;
24153;SDS011;12312;53.362;-1.518;2022-08-11T15:42:37;3.97;;;2.30;;
24153;SDS011;12312;53.362;-1.518;2022-08-11T15:45:34;8.05;;;2.50;;
24153;SDS011;12312;53.362;-1.518;2022-08-11T15:48:21;6.00;;;2.40;;
24153;SDS011;12312;53.362;-1.518;2022-08-11T15:50:55;4.30;;;2.08;;
24153;SDS011;12312;53.362;-1.518;2022-08-11T15:55:52;6.68;;;2.30;;
24153;SDS011;12312;53.362;-1.518;2022-08-11T15:58:20;3.88;;;2.20;;
24153;SDS011;12312;53.362;-1.518;2022-08-11T16:01:08;4.57;;;2.00;;
24153;SDS011;12312;53.362;-1.518;2022-08-11T16:03:59;4.72;;;2.17;;
24153;SDS011;12312;53.362;-1.518;2022-08-11T16:06:40;4.22;;;1.95;;
24153;SDS011;12312;53.362;-1.518;2022-08-11T16:12:05;9.13;;;2.20;;
24153;SDS011;12312;53.362;-1.518;2022-08-11T16:14:47;3.35;;;1.85;;
24153;SDS011;12312;53.362;-1.518;2022-08-11T16:17:41;4.50;;;2.08;;
24153;SDS011;12312;53.362;-1.518;2022-08-11T16:20:09;5.17;;;1.93;;
24153;SDS011;12312;53.362;-1.518;2022-08-11T16:22:37;9.13;;;2.20;;
24153;SDS011;12312;53.362;-1.518;2022-08-11T16:25:09;6.15;;;2.03;;
24153;SDS011;12312;53.362;-1.518;2022-08-11T16:27:39;5.13;;;1.90;;
24153;SDS011;12312;53.362;-1.518;2022-08-11T16:30:07;6.28;;;1.70;;
24153;SDS011;12312;53.362;-1.518;2022-08-11T16:32:34;4.40;;;1.88;;
24153;SDS011;12312;53.362;-1.518;2022-08-11T16:35:14;5.05;;;2.20;;
24153;SDS011;12312;53.362;-1.518;2022-08-11T16:38:01;4.88;;;1.95;;
24153;SDS011;12312;53.362;-1.518;2022-08-11T16:40:48;5.63;;;2.30;;
24153;SDS011;12312;53.362;-1.518;2022-08-11T16:43:17;5.68;;;2.22;;
24153;SDS011;12312;53.362;-1.518;2022-08-11T16:46:07;5.13;;;1.88;;
24153;SDS011;12312;53.362;-1.518;2022-08-11T16:48:52;4.45;;;1.77;;
24153;SDS011;12312;53.362;-1.518;2022-08-11T16:51:20;5.60;;;1.67;;
24153;SDS011;12312;53.362;-1.518;2022-08-11T16:53:48;3.33;;;1.80;;
24153;SDS011;12312;53.362;-1.518;2022-08-11T16:56:17;8.05;;;2.20;;
24153;SDS011;12312;53.362;-1.518;2022-08-11T16:58:49;3.97;;;1.73;;
24153;SDS011;12312;53.362;-1.518;2022-08-11T17:01:36;3.00;;;1.80;;
24153;SDS011;12312;53.362;-1.518;2022-08-11T17:04:16;4.40;;;1.67;;
24153;SDS011;12312;53.362;-1.518;2022-08-11T17:07:06;4.10;;;1.85;;
24153;SDS011;12312;53.362;-1.518;2022-08-11T17:09:50;2.30;;;1.67;;
24153;SDS011;12312;53.362;-1.518;2022-08-11T17:12:37;3.13;;;1.45;;
24153;SDS011;12312;53.362;-1.518;2022-08-11T17:15:24;4.55;;;1.52;;
24153;SDS011;12312;53.362;-1.518;2022-08-11T17:18:12;3.05;;;1.60;;
24153;SDS011;12312;53.362;-1.518;2022-08-11T17:21:10;5.32;;;1.70;;
24153;SDS011;12312;53.362;-1.518;2022-08-11T17:23:44;4.45;;;1.92;;
24153;SDS011;12312;53.362;-1.518;2022-08-11T17:26:27;4.05;;;1.80;;
24153;SDS011;12312;53.362;-1.518;2022-08-11T17:32:00;3.40;;;1.73;;
24153;SDS011;12312;53.362;-1.518;2022-08-11T17:34:50;2.95;;;1.58;;
24153;SDS011;12312;53.362;-1.518;2022-08-11T17:37:38;4.00;;;1.50;;
24153;SDS011;12312;53.362;-1.518;2022-08-11T17:40:09;5.88;;;1.70;;
24153;SDS011;12312;53.362;-1.518;2022-08-11T17:42:39;3.78;;;1.75;;
24153;SDS011;12312;53.362;-1.518;2022-08-11T17:45:25;4.55;;;1.40;;
24153;SDS011;12312;53.362;-1.518;2022-08-11T17:48:10;7.82;;;1.23;;
24153;SDS011;12312;53.362;-1.518;2022-08-11T17:50:55;2.70;;;1.55;;
24153;SDS011;12312;53.362;-1.518;2022-08-11T17:53:21;1.30;;;1.00;;
24153;SDS011;12312;53.362;-1.518;2022-08-11T17:56:06;3.75;;;1.10;;
24153;SDS011;12312;53.362;-1.518;2022-08-11T17:58:53;5.03;;;1.50;;
24153;SDS011;12312;53.362;-1.518;2022-08-11T18:01:38;4.65;;;1.30;;
24153;SDS011;12312;53.362;-1.518;2022-08-11T18:04:06;1.77;;;1.40;;
24153;SDS011;12312;53.362;-1.518;2022-08-11T18:06:35;4.07;;;1.40;;
24153;SDS011;12312;53.362;-1.518;2022-08-11T18:09:03;2.17;;;1.35;;
24153;SDS011;12312;53.362;-1.518;2022-08-11T18:11:52;5.07;;;2.45;;
24153;SDS011;12312;53.362;-1.518;2022-08-11T18:14:39;6.75;;;4.07;;
24153;SDS011;12312;53.362;-1.518;2022-08-11T18:17:26;5.45;;;2.58;;
24153;SDS011;12312;53.362;-1.518;2022-08-11T18:20:11;3.40;;;2.08;;
24153;SDS011;12312;53.362;-1.518;2022-08-11T18:22:56;8.77;;;2.10;;
24153;SDS011;12312;53.362;-1.518;2022-08-11T18:25:44;3.85;;;2.70;;
24153;SDS011;12312;53.362;-1.518;2022-08-11T18:31:19;2.47;;;1.55;;
24153;SDS011;12312;53.362;-1.518;2022-08-11T18:34:05;3.63;;;1.38;;
24153;SDS011;12312;53.362;-1.518;2022-08-11T18:39:44;4.13;;;1.70;;
24153;SDS011;12312;53.362;-1.518;2022-08-11T18:42:32;4.55;;;1.27;;
24153;SDS011;12312;53.362;-1.518;2022-08-11T18:45:19;4.03;;;1.85;;
24153;SDS011;12312;53.362;-1.518;2022-08-11T18:48:07;6.68;;;2.78;;
24153;SDS011;12312;53.362;-1.518;2022-08-11T18:50:55;5.53;;;2.08;;
24153;SDS011;12312;53.362;-1.518;2022-08-11T18:53:44;4.35;;;2.30;;
24153;SDS011;12312;53.362;-1.518;2022-08-11T18:56:34;4.97;;;1.77;;
24153;SDS011;12312;53.362;-1.518;2022-08-11T18:59:19;2.42;;;1.60;;
24153;SDS011;12312;53.362;-1.518;2022-08-11T19:02:07;4.72;;;2.10;;
24153;SDS011;12312;53.362;-1.518;2022-08-11T19:04:54;3.33;;;1.50;;
24153;SDS011;12312;53.362;-1.518;2022-08-11T19:07:45;3.00;;;1.58;;
24153;SDS011;12312;53.362;-1.518;2022-08-11T19:10:33;5.40;;;1.92;;
24153;SDS011;12312;53.362;-1.518;2022-08-11T19:13:18;6.10;;;1.85;;
24153;SDS011;12312;53.362;-1.518;2022-08-11T19:16:07;9.45;;;1.98;;
24153;SDS011;12312;53.362;-1.518;2022-08-11T19:18:52;6.03;;;1.80;;
24153;SDS011;12312;53.362;-1.518;2022-08-11T19:21:37;5.45;;;2.15;;
24153;SDS011;12312;53.362;-1.518;2022-08-11T19:24:25;5.43;;;2.22;;
24153;SDS011;12312;53.362;-1.518;2022-08-11T19:27:13;7.40;;;2.28;;
24153;SDS011;12312;53.362;-1.518;2022-08-11T19:30:00;8.32;;;2.63;;
24153;SDS011;12312;53.362;-1.518;2022-08-11T19:32:44;9.63;;;2.75;;
24153;SDS011;12312;53.362;-1.518;2022-08-11T19:35:32;6.25;;;2.60;;
24153;SDS011;12312;53.362;-1.518;2022-08-11T19:38:17;6.03;;;3.08;;
24153;SDS011;12312;53.362;-1.518;2022-08-11T19:41:05;8.18;;;3.17;;
24153;SDS011;12312;53.362;-1.518;2022-08-11T19:43:49;7.70;;;2.88;;
24153;SDS011;12312;53.362;-1.518;2022-08-11T19:46:34;4.82;;;2.35;;